Aalst Hospital Helistrip

EBAL · Oost-Vlaanderen, Flanders, 比利时

使用的METAR站距离机场31 km。
罗盘
风向 的 风向 300° 直升机
风: 8 kt, 3 beaufort
0 ft 1.000 2.000 3.000 4.000 5.000
Cloud Cloud
FEW 600
Cloud Cloud Cloud Cloud
SCT 800
Cloud Cloud Cloud Cloud Cloud Cloud
BKN 2.100
METAR EBBR 211120Z 30008KT 6000 RA FEW006 SCT008 BKN021 16/15 Q1013 BECMG NSW

METAR Aalst Hospital Helistrip - EBAL

Aalst Hospital Helistrip是,比利时中的直升机场。 该机场位于纬度50,94309和经度4,05576。 本场的ICAO机场代码为EBAL。 机场在Bruxelles FIR中。

该航空气象观测是针对布鲁塞尔机场在2024年6月21日 13:20, 当地时间进行的。

机场观察

风向为300°,速度为8 kt。

可见度为6 km。

有几云在600 ft的高度, 疏云,零星散落的云朵在800 ft的高度 和 碎云在2.100 ft的高度。 破损或更高的上限为2.100 ft。

当前天气为雨。 温度和风寒是16 °C。 露点为15 °C,相对湿度为94%。 海平面上的气压为1013 hPa (QNH)。

发展趋势

  • 变得

    可变方向的风很小或没有。 没有观察到明显的天气.

白天

今天,太阳从05:29升起,在22:01降落。 这适用于Aalst Hospital Helistrip,世界夏令时可能有所不同。 当地时间与世界标准时间之间的时差为+2 小时。 夏令时目前正在进行中。

公司介绍

我们没有关于这个机场的公司信息。

体会

到Vliegles.nl去找飞行课程,跳伞和其他飞行体验。 浏览页面,了解Aalst Hospital Helistrip附近所有可用的活动。 你也可以使用搜索功能来寻找你所在地附近的特定飞行课程、跳伞或其他飞行体验。

乌云

600 ft FEW 几云
800 ft SCT 疏云,零星散落的云朵
2.100 ft BKN 碎云
- NSW 变得 没有观察到明显的天气

温度 & 天气

天气
温度 16 °C
露点 15 °C
相对湿度 94%
Kp-index 0 (0-9)

白天

日出
05:28
中午
13:43
日落
21:59 (7:58)

小工具

你想在你的网站上有一个关于Aalst Hospital Helistrip的当前航空天气(METAR)的小部件吗?

显示HTML代码
报告变更